Leesburg, FL

7:33 PM EDT on April 18, 2015 (GMT -0400)
Leesburg Regional | | Change Station
CLOSE
Current Station
Airport
Location: Leesburg,
Elevation: 75 ft
Nearby Weather Stations

Elev 75 ft 28.82 °N, 81.81 °W | Updated 40 minutes ago

Partly Cloudy
Partly Cloudy
83 °F
Feels Like 88 °F
N
9
Wind Variable Wind from WNW

Today
High -- | Low -- °F
--% Chance of Precip.
Yesterday
High -- | Low -- °F
Precip. -- in
6:58 AM 7:54 PM
New Moon, 0% visible
Pressure 29.93 in
Visibility 10.0 miles
Clouds Clear
Heat Index 88 °F
Dew Point 71 °F
Humidity 67%
Rainfall 0.00 in
Snow Depth Not available.
UV 1 out of 12
Pollen 8.90 out of 12
Air Quality Not available.
Flu Activity Local Activity
METAR KLEE 182253Z AUTO 30008KT 10SM CLR 28/22 A2993 RMK AO2 SLP135 T02830217

More Conditions Fewer Conditions

Pressure 29.93 in
Visibility 10.0 miles
Clouds Clear
Heat Index 88 °F
Dew Point 71 °F
Humidity 67%
Rainfall 0.00 in
Snow Depth Not available.
UV 1 out of 12
Pollen 8.90 out of 12
Air Quality Not available.
Flu Activity Local Activity
METAR KLEE 182253Z AUTO 30008KT 10SM CLR 28/22 A2993 RMK AO2 SLP135 T02830217

More Conditions Fewer Conditions

Nowcast | as of 4:40 PM EDT on April 18, 2015

record heat with a few showers developing through dusk... the thermometer has soared to around 90 degrees over most inland areas this afternoon with the only relief in the form of a slow inland moving sea breeze along the immediate coast. A few showers and storms will develop and track toward the east through nightfall. Affected areas will see a brief downpour and perhaps a lightning strike. Additional details...including graphics are available online at: http://www.Srh.NOAA.Gov/mlb/blog.Php

×

10-Day Weather Forecast

Almanac

Astronomy

Apr. 18, 2015 Rise Set
Actual Time
Civil Twilight
Nautical Twilight
Astronomical Twilight
Moon
Length of Visible Light
Length of Day
Tomorrow will be .
, % of the Moon is Illuminated

Today's Extremes

State Highs State Lows

Community

WunderPhotos

Upload Photos

1,814,576 photos uploaded!

WunderBlogs® & News

Nearby

Air Quality

  Air Quality AQ Index Pollutant
Not available.

Snow Depth

Station Depth Elevation

Earthquake Activity

City Distance Mag. Time & Date
Minimum magnitude displayed is 2.5.

Coastal Water Temperatures

Place Temperature

Stations

Nearby Weather Stations

Station Location Temp. Windchill Dew Point Humidity Wind Precip. Elev Updated Type